KMIA Airport Information

Runway Information
Runway 08L Length 8600 ft width 150 ft
Elevation 8 ft Threshold 0 ft Heading 87
Runway 26R Length 8600 ft Width 150 ft
Elevation 8 ft Threshold 0 ft Heading 267
Runway 08R Length 10506 ft width 200 ft
Elevation 8 ft Threshold 0 ft Heading 87
Runway 26L Length 10506 ft Width 200 ft
Elevation 8 ft Threshold 0 ft Heading 267
Runway 09 Length 13000 ft width 150 ft
Elevation 7 ft Threshold 1350 ft Heading 87
Runway 27 Length 13000 ft Width 150 ft
Elevation 8 ft Threshold 1270 ft Heading 267
Runway 12 Length 9354 ft width 150 ft
Elevation 8 ft Threshold 0 ft Heading 119
Runway 30 Length 9354 ft Width 150 ft
Elevation 8 ft Threshold 939 ft Heading 299
Airport Frequencies
Type APP Name APP Frequency 120.5 MHZ
Type ATIS Name ATIS Frequency 119.15 MHZ
Type CLD Name CLNC DEL Frequency 120.35 MHZ
Type DEP Name DEP Frequency 119.45 MHZ
Type GND Name GND Frequency 121.8 MHZ
Type TWR Name TWR Frequency 118.3 MHZ
Type UNIC Name UNICOM Frequency 123 MHZ
Airport Navaids
Type VORTAC Name Dolphin Frequency 113900 KHZ
Type NDB Name Keyes Frequency 248 KHZ
Airport Weather Information & NOTAM
ADDS - METARS form results

(0715 UTC 17 October 2018)
Data provider http://aviationweather.gov/metar/data/
 
METAR text: KMIA 170704Z 11006KT 10SM SCT021CB BKN070 BKN110 26/24 A3007 RMK AO2 RAE04 CB SE AND NW MOV NW P0000 T02560244 $
Conditions at: KMIA (MIAMI , FL, US) observed 0704 UTC 17 October 2018
Temperature: 25.6°C (78°F)
Dewpoint: 24.4°C (76°F) [RH = 93%]
Pressure (altimeter): 30.07 inches Hg (1018.4 mb)
Winds: from the ESE (110 degrees) at 7 MPH (6 knots; 3.1 m/s)
Visibility: 10 or more miles (16+ km)
Ceiling: 7000 feet AGL
Clouds: scattered clouds at 2100 feet AGL
broken clouds at 7000 feet AGL
broken clouds at 11000 feet AGL
Weather:
SOME DATA ABOVE MAY BE INACCURATE!!!
"$" is an indication the sensor requires maintenance

METAR text: KMIA 170653Z 09009G19KT 4SM -RA BR FEW016 BKN028CB BKN110 26/25 A3007 RMK AO2 RAB39 SLP181 CB OHD AND ALQDS MOV NW P0014 T02560250 $
Conditions at: KMIA (MIAMI , FL, US) observed 0653 UTC 17 October 2018
Temperature: 25.6°C (78°F)
Dewpoint: 25.0°C (77°F) [RH = 96%]
Pressure (altimeter): 30.07 inches Hg (1018.4 mb)
[Sea-level pressure: 1018.1 mb]
Winds: from the E (90 degrees) at 10 MPH (9 knots; 4.6 m/s)
gusting to 22 MPH (19 knots; 9.8 m/s)
Visibility: 4 miles ( 6 km)
Ceiling: 2800 feet AGL
Clouds: few clouds at 1600 feet AGL
broken clouds at 2800 feet AGL
broken clouds at 11000 feet AGL
Weather: -RA BR  (light rain, mist)
SOME DATA ABOVE MAY BE INACCURATE!!!
"$" is an indication the sensor requires maintenance

METAR text: KMIA 170650Z 10008G21KT 4SM -RA BR FEW016 BKN028CB BKN110 26/25 A3007 RMK AO2 RAB39 CB OHD AND ALQDS MOV NW P0010 $
Conditions at: KMIA (MIAMI , FL, US) observed 0650 UTC 17 October 2018
Temperature: 26.0°C (79°F)
Dewpoint: 25.0°C (77°F) [RH = 94%]
Pressure (altimeter): 30.07 inches Hg (1018.4 mb)
Winds: from the E (100 degrees) at 9 MPH (8 knots; 4.1 m/s)
gusting to 24 MPH (21 knots; 10.8 m/s)
Visibility: 4 miles ( 6 km)
Ceiling: 2800 feet AGL
Clouds: few clouds at 1600 feet AGL
broken clouds at 2800 feet AGL
broken clouds at 11000 feet AGL
Weather: -RA BR  (light rain, mist)
SOME DATA ABOVE MAY BE INACCURATE!!!
"$" is an indication the sensor requires maintenance

METAR text: KMIA 170645Z 12015G21KT 2SM +RA BR FEW016 BKN020CB BKN110 27/25 A3007 RMK AO2 RAB39 CB OHD-E-S-W MOV NW P0000 T02670250
Conditions at: KMIA (MIAMI , FL, US) observed 0645 UTC 17 October 2018
Temperature: 26.7°C (80°F)
Dewpoint: 25.0°C (77°F) [RH = 90%]
Pressure (altimeter): 30.07 inches Hg (1018.4 mb)
Winds: from the ESE (120 degrees) at 17 MPH (15 knots; 7.7 m/s)
gusting to 24 MPH (21 knots; 10.8 m/s)
Visibility: 2.00 miles (3.22 km)
Ceiling: 2000 feet AGL
Clouds: few clouds at 1600 feet AGL
broken clouds at 2000 feet AGL
broken clouds at 11000 feet AGL
Weather: +RA BR  (heavy rain, mist)

METAR text: KMIA 170640Z 12014KT 7SM -RA BKN020CB BKN048 BKN110 28/25 A3007 RMK AO2 RAB39 CB E-S-SW MOV NW P0000 T02780250
Conditions at: KMIA (MIAMI , FL, US) observed 0640 UTC 17 October 2018
Temperature: 27.8°C (82°F)
Dewpoint: 25.0°C (77°F) [RH = 85%]
Pressure (altimeter): 30.07 inches Hg (1018.4 mb)
Winds: from the ESE (120 degrees) at 16 MPH (14 knots; 7.2 m/s)
Visibility: 7 miles (11 km)
Ceiling: 2000 feet AGL
Clouds: broken clouds at 2000 feet AGL
broken clouds at 4800 feet AGL
broken clouds at 11000 feet AGL
Weather: -RA  (light rain)

Forecast for: KMIA (MIAMI , FL, US)
Text: KMIA 170538Z 1706/1812 09010KT P6SM VCSH SCT025
Forecast period: 0600 to 1400 UTC 17 October 2018
Forecast type: FROM: standard forecast or significant change
Winds: from the E (90 degrees) at 12 MPH (10 knots; 5.1 m/s)
Visibility: 6 or more miles 10+ km)
Ceiling: at least 12,000 feet AGL
Clouds: scattered clouds at 2500 feet AGL
Weather: VCSH  (showers in vicinity)
Text: FM171400 10014KT P6SM SCT025
Forecast period: 1400 UTC 17 October 2018 to 0000 UTC 18 October 2018
Forecast type: FROM: standard forecast or significant change
Winds: from the E (100 degrees) at 16 MPH (14 knots; 7.2 m/s)
Visibility: 6 or more miles 10+ km)
Ceiling: at least 12,000 feet AGL
Clouds: scattered clouds at 2500 feet AGL
Weather: no significant weather forecast for this period
Text: FM180000 09010KT P6SM SCT025
Forecast period: 0000 to 1200 UTC 18 October 2018
Forecast type: FROM: standard forecast or significant change
Winds: from the E (90 degrees) at 12 MPH (10 knots; 5.1 m/s)
Visibility: 6 or more miles 10+ km)
Ceiling: at least 12,000 feet AGL
Clouds: scattered clouds at 2500 feet AGL
Weather: no significant weather forecast for this period